Terminal Aerodrome Forecast
Issued by NWS Tallahassee, FL

Home | Current Version | Previous Version | Text Only | Print | Product List | Glossary On
Versions: 1 2 3 4 5 6 7 8 9 10 11 12 13 14 15 16 17
000
FTUS42 KTAE 162300
TAFTLH
TAF
KTLH 162338Z 1700/1724 06007KT P6SM SKC
     FM170300 08006KT P6SM SCT030
     FM170900 06008KT P6SM BKN015
     FM171600 08010G15KT P6SM BKN025 BKN100=

USA.gov is the U.S. government's official web portal to all federal, state and local government web resources and services.